• Join FlightAware (Why Join?)
  • Login
  • US Flag 
06:22PM EDT


 

Airport Tracker/Info


-or-


 

Live Flight TrackerFlight Track Log ✈ N3072D ✈ 29-Jun-2013 ✈ KLBO - KJEF

Flight Track Log - Related Links

Times and Time Zones

All times are in EDT time to prevent confusion due to time zone crossing. See the N3072D flight status page for this flight to view local times or setup timezone preferences in your user account.

Time Position Orientation Groundspeed Altitude Reporting Facility
EDT Latitude Longitude Course Direction KTS MPH feet Rate Location/Type
01:11PM 37.9247 -92.4967 38° Northeast 78 90 5,100  Level Kansas City Center
01:12PM 37.9456 -92.4700 45° Northeast 100 115 5,100 -120 Level Kansas City Center
01:13PM 37.9644 -92.4281 60° Northeast 108 124 4,900  Descending Kansas City Center
01:14PM 37.9817 -92.3953 56° Northeast 111 128 5,100 60 Climbing Kansas City Center
01:16PM 37.9989 -92.3639 55° Northeast 108 124 5,100  Level Kansas City Center
01:17PM 37.7510 -92.5824 38° Northeast  Level FlightAware Approximate
01:17PM 38.0142 -92.3314 59° Northeast 107 123 5,100  Level Kansas City Center
01:18PM 38.0347 -92.3022 48° Northeast 108 124 5,200  Climbing Kansas City Center
01:19PM 38.0533 -92.2717 52° Northeast 109 125 5,100 -60 Descending Kansas City Center
01:20PM 38.0728 -92.2400 52° Northeast 111 128 5,100 -60 Level Kansas City Center
01:21PM 38.0906 -92.2078 55° Northeast 112 129 5,000  Descending Kansas City Center
01:22PM 38.1072 -92.1769 56° Northeast 109 125 5,100  Climbing Kansas City Center
01:23PM 38.1261 -92.1464 52° Northeast 108 124 5,100  Level Kansas City Center
01:24PM 38.1506 -92.1094 50° Northeast 111 128 5,100  Level Kansas City Center
01:25PM 38.1697 -92.0819 48° Northeast 106 122 5,100 -60 Level Kansas City Center
01:26PM 38.1922 -92.0578 40° Northeast 105 121 5,000  Descending Kansas City Center
01:27PM 38.2136 -92.0367 38° Northeast 99 114 5,100  Climbing Kansas City Center
01:28PM 38.2364 -92.0133 39° Northeast 102 117 5,100  Level Kansas City Center
01:29PM 38.2611 -91.9956 29° Northeast 102 117 5,100 -60 Level Kansas City Center
01:30PM 38.2869 -91.9869 15° North 98 113 5,000  Descending Kansas City Center
01:31PM 38.3194 -91.9742 17° North 100 115 5,100  Climbing Kansas City Center
01:32PM 38.3464 -91.9625 19° North 101 116 5,100  Level Kansas City Center
01:33PM 38.3717 -91.9497 22° Northeast 99 114 5,100 -300 Level Kansas City Center
01:34PM 38.3989 -91.9428 11° North 98 113 4,600 -600 Descending Kansas City Center
01:35PM 38.4272 -91.9386 North 100 115 3,900 -780 Descending Kansas City Center
01:36PM 38.4572 -91.9319 10° North 106 122 3,100 -480 Descending Kansas City Center
01:37PM 38.4811 -91.9344 355° North 106 122 3,000 -360 Descending Kansas City Center
01:38PM 38.4997 -91.9644 308° West 95 109 2,400 -540 Descending Kansas City Center
01:39PM 38.5094 -91.9906 295° West 87 100 2,000 -180 Descending Kansas City Center
01:40PM 38.5222 -92.0150 304° West 85 98 2,100  Climbing Kansas City Center
01:41PM 38.5322 -92.0378 299° West 80 92 2,100 -60 Level Kansas City Center
01:42PM 38.5417 -92.0578 301° West 74 85 2,000 -120 Descending Kansas City Center
01:43PM 38.5528 -92.0772 306° West 70 81 1,900 -480 Descending Kansas City Center
01:44PM 38.5644 -92.1014 302° West 68 78 1,100 -540 Descending Kansas City Center
01:45PM 38.5725 -92.1192 300° West 69 79 900 -120 Descending Kansas City Center
01:47PM 38.5842 -92.1403 305° West 69 79 900  Level Kansas City Center
01:48PM 38.5833 -92.1500 303° West  Level FlightAware Approximate
01:55PM 38.5912 -92.1561 303° West  Level Estimated
01:56PM 38.5912 -92.1561 303° West  Level Estimated
01:57PM 38.5912 -92.1561 303° West  Level Estimated